Terminal Aerodrome Forecast
Issued by NWS

Home | Current Version | Previous Version | Text Only | Print | Product List | Glossary On
Versions: 1 2 3 4 5 6 7 8 9 10 11 12 13 14 15 16 17
703
FTUS44 KLZK 262333
TAFLIT
TAF
KLIT 262333Z 2700/2724 18004KT 5SM -RA BR BKN015 OVC029
      TEMPO 2700/2703 3SM -TSRA BR BKN005 BKN025CB
     FM270300 27008G22KT 4SM BR OVC015
     FM270600 29013KT P6SM BKN025
     FM270900 27006KT P6SM SCT025 SCT100
     FM271200 27006KT 4SM BR SCT100 BKN250
     FM271500 18005KT P6SM BKN250=

USA.gov is the U.S. government's official web portal to all federal, state and local government web resources and services.